Time;durP1;ratioP1;P1;durP2;ratioP2;P2;SDS_P1;SDS_P2;PMS_P1;PMS_P2;Temp;Humidity;BMP_temperature;BMP_pressure;BME280_temperature;BME280_humidity;BME280_pressure;Samples;Min_cycle;Max_cycle;Signal;HPM_P1;HPM_P2
2022/09/23 00:02:24;;;;;;;0.93;0.75;;;15.80;99.90;;;;;;6085558;23;20098;-77
2022/09/23 00:04:51;;;;;;;0.57;0.40;;;15.70;99.90;;;;;;6112976;23;20061;-78
2022/09/23 00:07:18;;;;;;;0.73;0.60;;;15.70;99.90;;;;;;6087646;23;20075;-77
2022/09/23 00:09:45;;;;;;;0.50;0.50;;;15.70;99.90;;;;;;6064829;23;20024;-77
2022/09/23 00:12:12;;;;;;;0.45;0.43;;;15.70;99.90;;;;;;6088136;23;20021;-77
2022/09/23 00:14:39;;;;;;;0.93;0.75;;;15.70;99.90;;;;;;6088918;23;20437;-77
2022/09/23 00:17:05;;;;;;;0.88;0.80;;;15.70;99.90;;;;;;6064229;23;20431;-76
2022/09/23 00:19:32;;;;;;;1.10;0.73;;;15.70;99.90;;;;;;6088566;23;20028;-77
2022/09/23 00:21:59;;;;;;;0.90;0.60;;;15.70;99.90;;;;;;6113160;23;20427;-77
2022/09/23 00:24:31;;;;;;;0.68;0.55;;;15.70;99.90;;;;;;6089116;23;20022;-78
2022/09/23 00:26:58;;;;;;;1.00;0.60;;;15.70;99.90;;;;;;6065343;23;20036;-77
2022/09/23 00:29:25;;;;;;;0.52;0.50;;;15.70;99.90;;;;;;6089066;23;20505;-76
2022/09/23 00:31:52;;;;;;;0.40;0.40;;;15.80;99.90;;;;;;6087542;23;20030;-76
2022/09/23 00:34:19;;;;;;;0.63;0.60;;;15.80;99.90;;;;;;6088257;23;20040;-76
2022/09/23 00:36:45;;;;;;;0.90;0.50;;;15.80;99.90;;;;;;6090686;23;20338;-76
2022/09/23 00:39:12;;;;;;;0.77;0.60;;;15.70;99.90;;;;;;6088981;23;20033;-76
2022/09/23 00:41:40;;;;;;;0.70;0.60;;;15.80;99.90;;;;;;6088506;23;20033;-76
2022/09/23 00:44:42;;;;;;;0.52;0.50;;;15.80;99.90;;;;;;6089447;23;20155;-76
2022/09/23 00:47:20;;;;;;;0.30;0.30;;;15.80;99.90;;;;;;6063152;23;20096;-77
2022/09/23 00:50:00;;;;;;;0.50;0.50;;;15.80;99.90;;;;;;6089539;23;20071;-77
2022/09/23 00:52:27;;;;;;;1.35;0.60;;;15.80;99.90;;;;;;6088111;23;20514;-77
2022/09/23 00:54:54;;;;;;;1.60;1.15;;;15.70;99.90;;;;;;6065295;23;20354;-77
2022/09/23 00:57:20;;;;;;;0.68;0.60;;;15.70;99.90;;;;;;6064528;23;20025;-77
2022/09/23 00:59:48;;;;;;;1.10;0.90;;;15.70;99.90;;;;;;6088721;23;20129;-77
2022/09/23 01:02:15;;;;;;;1.25;0.80;;;15.70;99.90;;;;;;6062561;23;20049;-77
2022/09/23 01:04:42;;;;;;;0.68;0.65;;;15.70;99.90;;;;;;6088196;23;20026;-77
2022/09/23 01:07:09;;;;;;;1.05;0.65;;;15.60;99.90;;;;;;6113164;23;20018;-77
2022/09/23 01:09:36;;;;;;;0.50;0.50;;;15.50;99.90;;;;;;6113867;23;20049;-77
2022/09/23 01:12:13;;;;;;;1.17;0.70;;;15.50;99.90;;;;;;6087942;23;20029;-76
2022/09/23 01:14:57;;;;;;;0.65;0.60;;;15.50;99.90;;;;;;6088690;23;20323;-76
2022/09/23 01:17:27;;;;;;;1.27;0.73;;;15.50;99.90;;;;;;6063309;23;20018;-76
2022/09/23 01:20:26;;;;;;;1.23;0.75;;;15.40;99.90;;;;;;6113887;23;20527;-76
2022/09/23 01:23:10;;;;;;;0.75;0.57;;;15.40;99.90;;;;;;6087294;23;20026;-76
2022/09/23 01:25:40;;;;;;;0.98;0.70;;;15.30;99.90;;;;;;6114269;23;20026;-76
2022/09/23 01:28:32;;;;;;;0.80;0.60;;;15.30;99.90;;;;;;6113677;23;20033;-77
2022/09/23 01:31:12;;;;;;;0.70;0.70;;;15.30;99.90;;;;;;6060895;23;20462;-76
2022/09/23 01:33:40;;;;;;;0.95;0.70;;;15.20;99.90;;;;;;6088813;23;20612;-76
2022/09/23 01:36:41;;;;;;;0.98;0.70;;;15.30;99.90;;;;;;6115640;23;20366;-78
2022/09/23 01:39:12;;;;;;;1.65;0.98;;;15.20;99.90;;;;;;6090790;23;20029;-79
2022/09/23 01:42:08;;;;;;;0.95;0.80;;;15.20;99.90;;;;;;6090378;23;20109;-78
2022/09/23 01:44:47;;;;;;;1.90;0.90;;;15.20;99.90;;;;;;6092330;23;20025;-79
2022/09/23 01:47:16;;;;;;;0.85;0.77;;;15.20;99.90;;;;;;6064646;23;20033;-79
2022/09/23 01:49:56;;;;;;;0.90;0.85;;;15.30;99.90;;;;;;6090609;23;20104;-77
2022/09/23 01:52:40;;;;;;;0.77;0.60;;;15.30;99.90;;;;;;6065692;23;20032;-78
2022/09/23 01:55:15;;;;;;;0.90;0.70;;;15.30;99.90;;;;;;6090020;23;20028;-78
2022/09/23 01:58:12;;;;;;;1.23;0.77;;;15.30;99.90;;;;;;6066383;23;20486;-78
2022/09/23 02:00:44;;;;;;;0.98;0.73;;;15.30;99.90;;;;;;6028805;23;20045;-78
2022/09/23 02:03:17;;;;;;;1.17;0.82;;;15.30;99.90;;;;;;6088764;23;20029;-77
2022/09/23 02:05:52;;;;;;;1.00;0.80;;;15.30;99.90;;;;;;6090373;23;20326;-78
2022/09/23 02:08:34;;;;;;;0.82;0.80;;;15.30;99.90;;;;;;6088806;23;20041;-78
2022/09/23 02:11:06;;;;;;;1.05;0.95;;;15.30;99.90;;;;;;6089867;23;20026;-77
2022/09/23 02:13:39;;;;;;;1.33;1.02;;;15.30;99.90;;;;;;6066413;23;20349;-77
2022/09/23 02:16:27;;;;;;;1.25;1.05;;;15.30;99.90;;;;;;6090521;23;20022;-77
2022/09/23 02:19:14;;;;;;;1.17;1.00;;;15.30;99.90;;;;;;6090042;23;20022;-78
2022/09/23 02:21:44;;;;;;;1.00;0.60;;;15.30;99.90;;;;;;6088044;23;20030;-77
2022/09/23 02:24:18;;;;;;;0.90;0.70;;;15.30;99.90;;;;;;6066567;23;20021;-78
2022/09/23 02:26:54;;;;;;;1.08;0.90;;;15.30;99.90;;;;;;6089746;23;20082;-77
2022/09/23 02:29:28;;;;;;;1.08;0.68;;;15.30;99.90;;;;;;6090112;23;20551;-78
2022/09/23 02:32:03;;;;;;;1.60;1.00;;;15.30;99.90;;;;;;6088635;23;20021;-78
2022/09/23 02:34:42;;;;;;;0.90;0.70;;;15.30;99.90;;;;;;6089575;23;20048;-78
2022/09/23 02:37:19;;;;;;;1.10;0.70;;;15.40;99.90;;;;;;6114681;23;20022;-78
2022/09/23 02:40:06;;;;;;;1.35;0.80;;;15.30;99.90;;;;;;6115855;23;20570;-77
2022/09/23 02:42:46;;;;;;;0.68;0.65;;;15.30;99.90;;;;;;6089657;23;20029;-78
2022/09/23 02:45:13;;;;;;;0.90;0.80;;;15.30;99.90;;;;;;6066641;23;20026;-78
2022/09/23 02:47:41;;;;;;;1.05;0.85;;;15.30;99.90;;;;;;6065058;23;20316;-78
2022/09/23 02:50:08;;;;;;;0.80;0.60;;;15.30;99.90;;;;;;6089725;23;20026;-78
2022/09/23 02:52:37;;;;;;;1.00;0.65;;;15.30;99.90;;;;;;6088783;23;20018;-78
2022/09/23 02:55:05;;;;;;;0.82;0.65;;;15.30;99.90;;;;;;6090843;23;20052;-78
2022/09/23 02:57:32;;;;;;;0.95;0.80;;;15.30;99.90;;;;;;6066062;23;20022;-77
2022/09/23 03:00:01;;;;;;;0.55;0.55;;;15.30;99.90;;;;;;6090474;23;20026;-78
2022/09/23 03:02:59;;;;;;;1.27;0.70;;;15.30;99.90;;;;;;6088756;23;20415;-78
2022/09/23 03:05:29;;;;;;;0.55;0.50;;;15.30;99.90;;;;;;6075610;23;20022;-77
2022/09/23 03:08:18;;;;;;;0.60;0.60;;;15.30;99.90;;;;;;6065733;23;20104;-77
2022/09/23 03:10:53;;;;;;;0.90;0.73;;;15.30;99.90;;;;;;6115635;23;20037;-78
2022/09/23 03:13:39;;;;;;;1.10;0.75;;;15.30;99.90;;;;;;6089607;23;20018;-78
2022/09/23 03:16:24;;;;;;;1.55;0.80;;;15.30;99.90;;;;;;6115635;23;20025;-78
2022/09/23 03:19:03;;;;;;;0.90;0.73;;;15.30;99.90;;;;;;6115630;23;20026;-78
2022/09/23 03:21:33;;;;;;;0.82;0.60;;;15.20;99.90;;;;;;6089252;23;20033;-78
2022/09/23 03:24:00;;;;;;;0.75;0.60;;;15.20;99.90;;;;;;6090290;23;20030;-78
2022/09/23 03:26:32;;;;;;;0.93;0.73;;;15.20;99.90;;;;;;6089519;23;20066;-77
2022/09/23 03:29:01;;;;;;;0.73;0.52;;;15.20;99.90;;;;;;6066502;23;20044;-78
2022/09/23 03:31:28;;;;;;;0.65;0.52;;;15.30;99.90;;;;;;6088208;23;20120;-78
2022/09/23 03:33:57;;;;;;;1.40;0.68;;;15.30;99.90;;;;;;6066251;23;20026;-78
2022/09/23 03:39:18;;;;;;;1.05;0.60;;;15.30;99.90;;;;;;6094042;23;20029;-78
2022/09/23 03:41:49;;;;;;;1.00;0.60;;;15.30;99.90;;;;;;6089855;23;20026;-78
2022/09/23 03:44:17;;;;;;;0.68;0.65;;;15.30;99.90;;;;;;6066272;23;20018;-78
2022/09/23 03:46:48;;;;;;;1.55;0.55;;;15.30;99.90;;;;;;6088428;23;20026;-78
2022/09/23 03:49:26;;;;;;;0.73;0.70;;;15.30;99.90;;;;;;6090829;23;20369;-77
2022/09/23 03:51:54;;;;;;;0.57;0.50;;;15.30;99.90;;;;;;6088840;23;20034;-77
2022/09/23 03:54:21;;;;;;;1.17;1.00;;;15.30;99.90;;;;;;6065736;23;20037;-78
2022/09/23 03:56:47;;;;;;;0.50;0.43;;;15.30;99.90;;;;;;6089380;23;20029;-78
2022/09/23 03:59:14;;;;;;;0.60;0.60;;;15.30;99.90;;;;;;6089721;23;20092;-78
2022/09/23 04:01:42;;;;;;;0.60;0.52;;;15.30;99.90;;;;;;6088764;23;20096;-78
2022/09/23 04:04:09;;;;;;;0.55;0.55;;;15.30;99.90;;;;;;6088851;23;20042;-78
2022/09/23 04:06:36;;;;;;;0.57;0.57;;;15.30;99.90;;;;;;6065159;23;20373;-78
2022/09/23 04:09:02;;;;;;;0.52;0.50;;;15.30;99.90;;;;;;6089959;23;20022;-77
2022/09/23 04:11:29;;;;;;;0.70;0.50;;;15.30;99.90;;;;;;6089260;23;20586;-78
2022/09/23 04:13:56;;;;;;;0.50;0.50;;;15.30;99.90;;;;;;6066422;23;20096;-78
2022/09/23 04:16:23;;;;;;;0.52;0.43;;;15.30;99.90;;;;;;6088535;23;20022;-78
2022/09/23 04:18:50;;;;;;;1.00;0.50;;;15.30;99.90;;;;;;6089377;23;20073;-76
2022/09/23 04:21:16;;;;;;;0.30;0.30;;;15.30;99.90;;;;;;6089518;23;20048;-76
2022/09/23 04:23:45;;;;;;;0.55;0.47;;;15.30;99.90;;;;;;6088123;23;20014;-77
2022/09/23 04:26:12;;;;;;;0.70;0.60;;;15.30;99.90;;;;;;6090352;23;20033;-76
2022/09/23 04:28:39;;;;;;;0.68;0.50;;;15.30;99.90;;;;;;6088904;23;20450;-76
2022/09/23 04:31:06;;;;;;;0.68;0.52;;;15.30;99.90;;;;;;6089763;23;20101;-76
2022/09/23 04:33:33;;;;;;;0.40;0.40;;;15.30;99.90;;;;;;6088985;23;20026;-76
2022/09/23 04:36:00;;;;;;;0.63;0.40;;;15.30;99.90;;;;;;6089104;23;20026;-76
2022/09/23 04:38:27;;;;;;;1.15;0.50;;;15.30;99.90;;;;;;6065282;23;20688;-76
2022/09/23 04:40:54;;;;;;;0.57;0.57;;;15.20;99.90;;;;;;6089014;23;20026;-76
2022/09/23 04:43:22;;;;;;;0.80;0.60;;;15.30;99.90;;;;;;6064620;23;20026;-78
2022/09/23 04:46:02;;;;;;;0.63;0.40;;;15.20;99.90;;;;;;6090017;23;20026;-78
2022/09/23 04:48:29;;;;;;;0.63;0.60;;;15.20;99.90;;;;;;6087977;23;20034;-76
2022/09/23 04:51:08;;;;;;;0.55;0.55;;;15.20;99.90;;;;;;6066620;23;20026;-78
2022/09/23 04:53:35;;;;;;;0.60;0.47;;;15.20;99.90;;;;;;6066611;23;20029;-78
2022/09/23 04:56:08;;;;;;;0.52;0.40;;;15.20;99.90;;;;;;6090446;23;20117;-78
2022/09/23 04:58:35;;;;;;;0.60;0.50;;;15.20;99.90;;;;;;6090334;23;20104;-78
2022/09/23 05:01:25;;;;;;;0.65;0.60;;;15.20;99.90;;;;;;6091074;23;20022;-78
2022/09/23 05:03:56;;;;;;;0.85;0.63;;;15.20;99.90;;;;;;6089429;23;20037;-78
2022/09/23 05:06:23;;;;;;;0.70;0.60;;;15.20;99.90;;;;;;6088176;23;20513;-78
2022/09/23 05:08:51;;;;;;;0.70;0.57;;;15.20;99.90;;;;;;6087202;23;20351;-78
2022/09/23 05:11:18;;;;;;;0.57;0.55;;;15.30;99.90;;;;;;6060486;23;20346;-76
2022/09/23 05:13:49;;;;;;;0.40;0.40;;;15.30;99.90;;;;;;6059573;23;20047;-76
2022/09/23 05:16:16;;;;;;;0.95;0.50;;;15.30;99.90;;;;;;6082815;23;20085;-77
2022/09/23 05:18:43;;;;;;;0.50;0.40;;;15.30;99.90;;;;;;6084013;23;20130;-78
2022/09/23 05:21:10;;;;;;;0.80;0.70;;;15.30;99.90;;;;;;6083894;23;20061;-78
2022/09/23 05:23:37;;;;;;;0.50;0.50;;;15.30;99.90;;;;;;6082993;23;20022;-78
2022/09/23 05:26:11;;;;;;;0.55;0.43;;;15.30;99.90;;;;;;6083884;23;20026;-79
2022/09/23 05:28:38;;;;;;;0.80;0.60;;;15.30;99.90;;;;;;6083880;23;20498;-78
2022/09/23 05:31:15;;;;;;;1.85;0.93;;;15.30;99.90;;;;;;6083519;23;20034;-78
2022/09/23 05:33:59;;;;;;;0.88;0.60;;;15.30;99.90;;;;;;6062113;23;20022;-77
2022/09/23 05:36:27;;;;;;;1.17;0.80;;;15.40;99.90;;;;;;6083468;23;20025;-76
2022/09/23 05:38:56;;;;;;;0.50;0.50;;;15.40;99.90;;;;;;6086112;23;20026;-77
2022/09/23 05:41:24;;;;;;;0.63;0.57;;;15.40;99.90;;;;;;6109681;23;20029;-77
2022/09/23 05:43:51;;;;;;;0.63;0.63;;;15.40;99.90;;;;;;6084643;23;20170;-77
2022/09/23 05:46:22;;;;;;;0.68;0.60;;;15.40;99.90;;;;;;6082659;23;20040;-76
2022/09/23 05:48:49;;;;;;;0.60;0.60;;;15.40;99.90;;;;;;6083934;23;20340;-77
2022/09/23 05:51:18;;;;;;;0.63;0.60;;;15.40;99.90;;;;;;6059076;23;20026;-77
2022/09/23 05:53:46;;;;;;;0.57;0.45;;;15.50;99.90;;;;;;6083470;23;20354;-77
2022/09/23 05:56:14;;;;;;;1.00;0.90;;;15.50;99.90;;;;;;6058750;23;20144;-77
2022/09/23 05:58:41;;;;;;;0.70;0.52;;;15.50;99.90;;;;;;6083703;23;20033;-77
2022/09/23 06:01:11;;;;;;;0.50;0.50;;;15.50;99.90;;;;;;6082274;23;20026;-76
2022/09/23 06:03:38;;;;;;;0.70;0.63;;;15.60;99.90;;;;;;6082197;23;20069;-77
2022/09/23 06:06:06;;;;;;;0.47;0.47;;;15.60;99.90;;;;;;6059766;23;20133;-77
2022/09/23 06:08:33;;;;;;;2.60;0.93;;;15.60;99.90;;;;;;6081501;23;20724;-77
2022/09/23 06:11:08;;;;;;;0.85;0.60;;;15.60;99.90;;;;;;6059254;23;20029;-77
2022/09/23 06:13:36;;;;;;;0.82;0.75;;;15.60;99.90;;;;;;6108239;23;20044;-77
2022/09/23 06:16:08;;;;;;;0.98;0.80;;;15.60;99.90;;;;;;6059757;23;20057;-77
2022/09/23 06:18:40;;;;;;;0.80;0.80;;;15.70;99.90;;;;;;6082181;23;20025;-77
2022/09/23 06:21:06;;;;;;;0.95;0.80;;;15.60;99.90;;;;;;6082323;23;20025;-76
2022/09/23 06:23:33;;;;;;;1.15;0.93;;;15.60;99.90;;;;;;6107796;23;20084;-77
2022/09/23 06:26:05;;;;;;;0.52;0.52;;;15.60;99.90;;;;;;6083202;23;20026;-77
2022/09/23 06:28:34;;;;;;;0.68;0.68;;;15.50;99.90;;;;;;6083266;23;20389;-77
2022/09/23 06:31:03;;;;;;;1.23;0.85;;;15.50;99.90;;;;;;6059425;23;20022;-77
2022/09/23 06:33:29;;;;;;;1.17;0.85;;;15.50;99.90;;;;;;6082224;23;20124;-77
2022/09/23 06:36:04;;;;;;;0.90;0.73;;;15.50;99.90;;;;;;6083914;23;20454;-77
2022/09/23 06:38:32;;;;;;;1.38;0.90;;;15.40;99.90;;;;;;6081398;23;20586;-77
2022/09/23 06:41:00;;;;;;;1.30;0.90;;;15.40;99.90;;;;;;6083476;23;20029;-76
2022/09/23 06:43:27;;;;;;;1.33;1.00;;;15.40;99.90;;;;;;6083248;23;20022;-77
2022/09/23 06:46:02;;;;;;;0.65;0.63;;;15.40;99.90;;;;;;6059957;23;20025;-77
2022/09/23 06:48:30;;;;;;;0.82;0.70;;;15.50;99.90;;;;;;6081832;23;20056;-77
2022/09/23 06:51:03;;;;;;;0.65;0.63;;;15.50;99.90;;;;;;6082826;23;20587;-76
2022/09/23 06:53:31;;;;;;;0.85;0.77;;;15.50;99.90;;;;;;6081668;23;20413;-79
2022/09/23 06:55:59;;;;;;;1.05;0.80;;;15.60;99.90;;;;;;6082974;23;20969;-79
2022/09/23 06:58:26;;;;;;;0.90;0.77;;;15.50;99.90;;;;;;6082984;23;20435;-78
2022/09/23 07:00:53;;;;;;;2.05;1.23;;;15.50;99.90;;;;;;6108636;23;20085;-77
2022/09/23 07:03:21;;;;;;;1.13;1.02;;;15.50;99.90;;;;;;6081127;23;20527;-78
2022/09/23 07:05:47;;;;;;;1.17;1.00;;;15.50;99.90;;;;;;6083551;23;20026;-79
2022/09/23 07:08:15;;;;;;;1.00;0.90;;;15.40;99.90;;;;;;6083365;23;20024;-79
2022/09/23 07:10:42;;;;;;;1.35;1.10;;;15.40;99.90;;;;;;6084276;23;20096;-79
2022/09/23 07:13:09;;;;;;;1.20;0.90;;;15.40;99.90;;;;;;6108557;23;20028;-79
2022/09/23 07:15:41;;;;;;;1.52;1.13;;;15.40;99.90;;;;;;6083472;23;20022;-79
2022/09/23 07:18:08;;;;;;;2.03;1.08;;;15.50;99.90;;;;;;6080729;23;20070;-79
2022/09/23 07:20:35;;;;;;;0.95;0.80;;;15.50;99.90;;;;;;6082263;23;20100;-79
2022/09/23 07:23:02;;;;;;;1.17;0.90;;;15.50;99.90;;;;;;6056374;23;20141;-78
2022/09/23 07:25:28;;;;;;;1.40;1.10;;;15.50;99.90;;;;;;6083284;23;20025;-78
2022/09/23 07:27:55;;;;;;;1.30;1.10;;;15.60;99.90;;;;;;6082200;23;20034;-78
2022/09/23 07:30:22;;;;;;;1.23;1.10;;;15.60;99.90;;;;;;6109427;23;20035;-78
2022/09/23 07:32:51;;;;;;;1.30;1.00;;;15.60;99.90;;;;;;6107451;23;20032;-77
2022/09/23 07:35:18;;;;;;;1.20;1.02;;;15.60;99.90;;;;;;6082507;23;20084;-77
2022/09/23 07:37:45;;;;;;;1.48;1.30;;;15.60;99.90;;;;;;6107744;23;20026;-77
2022/09/23 07:40:12;;;;;;;1.00;0.80;;;15.60;99.90;;;;;;6108491;23;20025;-77
2022/09/23 07:42:40;;;;;;;1.30;1.02;;;15.70;99.90;;;;;;6108888;23;20315;-78
2022/09/23 07:45:07;;;;;;;1.30;0.90;;;15.70;99.90;;;;;;6081476;23;20021;-77
2022/09/23 07:47:34;;;;;;;1.20;1.10;;;15.80;99.90;;;;;;6107140;23;20164;-76
2022/09/23 07:50:01;;;;;;;1.60;1.25;;;15.90;99.90;;;;;;6057146;23;20026;-79
2022/09/23 07:52:28;;;;;;;1.63;1.30;;;15.80;99.90;;;;;;6082080;23;20087;-78
2022/09/23 07:54:54;;;;;;;1.30;1.02;;;15.80;99.90;;;;;;6083860;23;20026;-78
2022/09/23 07:57:21;;;;;;;1.67;1.02;;;15.80;99.90;;;;;;6058704;23;20029;-78
2022/09/23 07:59:48;;;;;;;1.10;1.00;;;15.70;99.90;;;;;;6083492;23;20492;-78
2022/09/23 08:02:15;;;;;;;1.45;1.10;;;15.80;99.90;;;;;;6107809;23;20038;-78
2022/09/23 08:04:42;;;;;;;1.63;0.95;;;15.70;99.90;;;;;;6106822;23;20060;-78
2022/09/23 08:07:08;;;;;;;1.30;1.10;;;15.80;99.90;;;;;;6082278;23;20018;-78
2022/09/23 08:09:40;;;;;;;1.42;0.90;;;15.80;99.90;;;;;;6082161;23;20045;-78
2022/09/23 08:12:11;;;;;;;1.10;1.00;;;15.80;99.90;;;;;;6081742;23;20057;-78
2022/09/23 08:14:41;;;;;;;1.40;1.10;;;15.90;99.90;;;;;;6083787;23;20072;-78
2022/09/23 08:17:10;;;;;;;1.48;1.10;;;15.90;99.90;;;;;;6058537;23;20351;-78
2022/09/23 08:19:37;;;;;;;1.75;1.20;;;15.90;99.90;;;;;;6082797;23;20182;-78
2022/09/23 08:22:03;;;;;;;1.00;0.90;;;15.90;99.90;;;;;;6082641;23;20105;-78
2022/09/23 08:24:31;;;;;;;1.20;0.90;;;15.80;99.90;;;;;;6083709;23;20466;-78
2022/09/23 08:26:57;;;;;;;0.80;0.77;;;15.90;99.90;;;;;;6060326;23;20061;-78
2022/09/23 08:29:25;;;;;;;1.50;1.10;;;15.90;99.90;;;;;;6085605;23;20410;-78
2022/09/23 08:31:51;;;;;;;1.15;0.95;;;15.90;99.90;;;;;;6084753;23;20021;-78
2022/09/23 08:34:19;;;;;;;1.20;1.02;;;15.90;99.90;;;;;;6084289;23;20018;-78
2022/09/23 08:36:46;;;;;;;1.27;1.05;;;15.90;99.90;;;;;;6059334;23;20029;-77
2022/09/23 08:39:14;;;;;;;1.27;1.02;;;16.00;99.90;;;;;;6084731;23;20022;-78
2022/09/23 08:42:16;;;;;;;1.10;0.90;;;16.10;99.90;;;;;;6084603;23;20053;-78
2022/09/23 08:44:49;;;;;;;0.60;0.60;;;16.20;99.90;;;;;;6084387;23;20056;-77
2022/09/23 08:47:26;;;;;;;1.70;1.00;;;16.30;99.90;;;;;;6083850;23;20033;-78
2022/09/23 08:50:05;;;;;;;1.10;1.00;;;16.30;99.90;;;;;;6083979;23;20191;-77
2022/09/23 08:52:35;;;;;;;1.02;0.88;;;16.40;99.90;;;;;;6082612;23;20136;-77
2022/09/23 08:55:02;;;;;;;1.63;1.20;;;16.50;99.90;;;;;;6060203;23;20045;-77
2022/09/23 08:57:49;;;;;;;0.70;0.70;;;16.50;99.90;;;;;;6084678;23;20883;-78
2022/09/23 09:00:40;;;;;;;1.45;1.00;;;16.50;99.90;;;;;;6106393;23;20022;-76
2022/09/23 09:03:19;;;;;;;1.55;1.33;;;16.50;99.90;;;;;;6082853;23;20026;-77
2022/09/23 09:05:46;;;;;;;1.48;1.10;;;16.50;99.90;;;;;;6082721;23;20351;-77
2022/09/23 09:08:25;;;;;;;1.83;1.42;;;16.50;99.90;;;;;;6083981;23;20034;-76
2022/09/23 09:10:53;;;;;;;1.90;1.38;;;16.60;99.90;;;;;;6087162;23;20029;-77
2022/09/23 09:13:32;;;;;;;1.25;1.15;;;16.70;99.90;;;;;;6062031;23;20045;-77
2022/09/23 09:16:10;;;;;;;1.13;1.02;;;16.70;99.90;;;;;;6062790;23;20290;-77
2022/09/23 09:18:42;;;;;;;1.55;1.38;;;16.80;99.90;;;;;;6086054;23;20057;-77
2022/09/23 09:21:13;;;;;;;2.05;1.17;;;16.90;99.90;;;;;;6086620;23;20439;-77
2022/09/23 09:23:54;;;;;;;2.08;1.52;;;16.90;99.90;;;;;;6062104;23;20040;-76
2022/09/23 09:26:28;;;;;;;1.73;1.30;;;17.00;99.90;;;;;;6063363;23;20021;-75
2022/09/23 09:29:08;;;;;;;2.00;1.58;;;17.00;99.90;;;;;;6063493;23;20022;-74
2022/09/23 09:31:56;;;;;;;1.40;1.27;;;16.90;99.90;;;;;;6091504;23;20028;-74
2022/09/23 09:34:36;;;;;;;1.00;0.88;;;16.90;99.90;;;;;;6063227;23;20069;-73
2022/09/23 09:37:19;;;;;;;1.20;1.10;;;16.90;99.90;;;;;;6061151;23;20463;-75
2022/09/23 09:39:45;;;;;;;1.83;1.60;;;16.90;99.90;;;;;;6086444;23;20121;-74
2022/09/23 09:42:37;;;;;;;1.80;1.50;;;16.90;99.90;;;;;;6086903;23;20045;-75
2022/09/23 09:45:11;;;;;;;4.40;3.55;;;16.80;99.90;;;;;;6064172;23;20018;-74
2022/09/23 09:47:55;;;;;;;5.80;4.75;;;16.50;99.90;;;;;;6086616;23;20022;-74
2022/09/23 09:50:42;;;;;;;4.53;4.07;;;16.30;99.90;;;;;;6112608;23;20163;-75
2022/09/23 09:53:19;;;;;;;5.70;5.13;;;16.30;99.90;;;;;;6085618;23;20018;-74
2022/09/23 09:55:47;;;;;;;5.03;4.35;;;16.30;99.90;;;;;;6112915;23;20037;-74
2022/09/23 09:58:15;;;;;;;4.80;4.30;;;16.40;99.90;;;;;;6086918;23;20061;-74
2022/09/23 10:00:43;;;;;;;4.45;4.05;;;16.40;99.90;;;;;;6111881;23;20131;-74
2022/09/23 10:03:13;;;;;;;5.45;4.88;;;16.50;99.90;;;;;;6060525;23;20128;-74
2022/09/23 10:05:43;;;;;;;3.95;3.58;;;16.40;99.90;;;;;;6108103;23;20018;-74
2022/09/23 10:08:28;;;;;;;4.68;4.10;;;16.50;99.90;;;;;;6107626;23;20547;-74
2022/09/23 10:10:58;;;;;;;5.10;4.57;;;16.60;99.90;;;;;;6059621;23;20204;-74
2022/09/23 10:13:25;;;;;;;6.15;5.38;;;16.60;99.90;;;;;;6082583;23;20536;-76
2022/09/23 10:15:55;;;;;;;4.20;3.80;;;16.60;99.90;;;;;;6082627;23;20046;-75
2022/09/23 10:18:27;;;;;;;4.88;4.32;;;16.70;99.90;;;;;;6082346;23;20026;-75
2022/09/23 10:21:21;;;;;;;5.18;4.68;;;16.70;99.90;;;;;;6082271;23;20454;-76
2022/09/23 10:23:56;;;;;;;4.88;4.45;;;16.60;99.90;;;;;;6083358;23;20355;-76
2022/09/23 10:26:38;;;;;;;5.78;4.38;;;16.70;99.90;;;;;;6083464;23;20080;-75
2022/09/23 10:29:38;;;;;;;5.50;4.60;;;16.70;99.90;;;;;;6059900;23;20033;-75
2022/09/23 10:32:20;;;;;;;4.88;4.25;;;16.80;99.90;;;;;;6060141;23;20030;-76
2022/09/23 10:34:52;;;;;;;3.60;3.30;;;16.70;99.90;;;;;;6108653;23;20026;-75
2022/09/23 10:37:32;;;;;;;3.78;3.13;;;16.80;99.90;;;;;;6057389;23;20080;-75
2022/09/23 10:49:09;;;;;;;3.60;3.08;;;17.10;99.90;;;;;;6087854;23;20416;-75
2022/09/23 10:52:30;;;;;;;4.28;3.70;;;17.00;99.90;;;;;;6083055;23;20037;-75
2022/09/23 10:55:09;;;;;;;4.65;4.22;;;17.00;99.90;;;;;;5968180;23;20107;-75
2022/09/23 10:57:45;;;;;;;4.85;3.70;;;16.90;99.90;;;;;;6109132;23;20049;-75
2022/09/23 11:00:31;;;;;;;3.40;2.95;;;17.00;99.90;;;;;;6083020;23;20025;-75
2022/09/23 11:03:27;;;;;;;2.95;2.65;;;17.00;99.90;;;;;;6108871;23;20033;-75
2022/09/23 11:06:02;;;;;;;3.80;3.40;;;17.10;99.90;;;;;;6084269;23;20049;-75
2022/09/23 11:08:54;;;;;;;2.78;2.47;;;17.20;99.90;;;;;;6107943;23;20120;-75
2022/09/23 11:11:32;;;;;;;3.90;3.50;;;17.40;99.90;;;;;;6083108;23;20367;-75
2022/09/23 11:14:27;;;;;;;4.25;3.85;;;17.60;99.90;;;;;;6060041;23;20404;-75
2022/09/23 11:17:25;;;;;;;3.42;3.13;;;17.80;99.90;;;;;;6107940;23;20047;-75
2022/09/23 11:20:24;;;;;;;2.72;2.40;;;18.10;99.90;;;;;;6084012;23;20097;-75
2022/09/23 11:23:21;;;;;;;2.95;2.65;;;18.20;99.90;;;;;;6082022;23;20679;-75
2022/09/23 11:26:11;;;;;;;4.40;3.95;;;18.20;99.90;;;;;;6083042;23;20029;-75
2022/09/23 11:29:09;;;;;;;4.72;4.32;;;18.10;99.90;;;;;;6059431;23;20032;-74
2022/09/23 11:32:13;;;;;;;3.38;2.95;;;18.10;99.90;;;;;;6082718;23;20428;-74
2022/09/23 11:34:52;;;;;;;3.13;2.83;;;18.00;99.90;;;;;;6082993;23;20040;-76
2022/09/23 11:37:29;;;;;;;4.28;3.88;;;17.90;99.90;;;;;;6082314;23;20112;-75
2022/09/23 11:40:00;;;;;;;3.10;2.80;;;17.70;99.90;;;;;;6059628;23;20022;-75
2022/09/23 11:42:35;;;;;;;2.75;2.55;;;17.70;99.90;;;;;;6107863;23;20105;-75
2022/09/23 11:45:14;;;;;;;2.80;2.50;;;17.80;99.90;;;;;;6059811;23;20435;-74
2022/09/23 11:47:45;;;;;;;2.65;2.33;;;17.70;99.90;;;;;;6082393;23;20349;-75
2022/09/23 11:50:17;;;;;;;2.35;1.90;;;17.60;99.90;;;;;;6059351;23;20109;-76
2022/09/23 11:52:47;;;;;;;1.92;1.60;;;17.70;99.90;;;;;;6082916;23;20358;-76
2022/09/23 11:55:30;;;;;;;1.95;1.70;;;17.70;99.90;;;;;;6083208;23;20109;-75
2022/09/23 11:58:09;;;;;;;1.58;1.48;;;17.80;99.90;;;;;;6059250;23;20037;-75
2022/09/23 12:01:12;;;;;;;1.80;1.45;;;17.90;99.90;;;;;;6067323;23;20026;-76
2022/09/23 12:03:50;;;;;;;1.58;1.48;;;18.10;99.90;;;;;;6060554;23;20494;-76
2022/09/23 12:06:40;;;;;;;2.70;2.17;;;18.20;99.90;;;;;;6085526;23;20030;-75
2022/09/23 12:09:18;;;;;;;2.50;2.00;;;18.20;99.90;;;;;;6088600;23;20040;-76
2022/09/23 12:12:10;;;;;;;1.63;1.38;;;18.30;99.90;;;;;;6069179;23;20018;-76
2022/09/23 12:15:00;;;;;;;2.20;1.65;;;18.40;99.90;;;;;;6110762;23;20096;-74
2022/09/23 12:17:40;;;;;;;2.05;1.50;;;18.40;99.90;;;;;;6084478;23;20025;-75
2022/09/23 12:20:13;;;;;;;2.20;1.70;;;18.40;99.90;;;;;;6085335;23;20129;-74
2022/09/23 12:22:58;;;;;;;1.65;1.50;;;18.50;99.90;;;;;;6083685;23;20036;-77
2022/09/23 12:25:34;;;;;;;1.75;1.20;;;18.40;99.90;;;;;;6111714;23;20022;-75
2022/09/23 12:28:15;;;;;;;0.98;0.80;;;18.40;99.90;;;;;;6110641;23;20167;-75
2022/09/23 12:30:42;;;;;;;0.82;0.75;;;18.50;99.90;;;;;;6085829;23;20030;-74
2022/09/23 12:33:23;;;;;;;1.73;1.15;;;18.60;99.90;;;;;;6083716;23;20026;-74
2022/09/23 12:35:54;;;;;;;1.95;1.50;;;18.60;99.90;;;;;;6085610;23;20022;-74
2022/09/23 12:38:47;;;;;;;1.67;1.33;;;18.70;99.90;;;;;;6085119;23;20121;-75
2022/09/23 12:41:28;;;;;;;1.30;1.00;;;19.00;99.90;;;;;;6096442;23;20029;-75
2022/09/23 12:43:59;;;;;;;1.52;1.10;;;19.30;99.90;;;;;;6085487;23;20022;-74
2022/09/23 12:46:26;;;;;;;1.70;1.60;;;19.40;99.90;;;;;;6083854;23;20033;-74
2022/09/23 12:49:02;;;;;;;1.48;1.33;;;19.40;99.90;;;;;;6085604;23;20746;-74
2022/09/23 12:51:33;;;;;;;3.40;2.53;;;19.30;99.90;;;;;;6109804;23;20338;-75
2022/09/23 12:54:03;;;;;;;1.95;1.75;;;19.00;99.90;;;;;;6084865;23;20057;-74
2022/09/23 12:56:33;;;;;;;2.92;2.20;;;18.80;99.90;;;;;;6084312;23;20025;-75
2022/09/23 12:59:09;;;;;;;3.45;1.88;;;18.70;99.90;;;;;;6110585;23;20072;-74
2022/09/23 13:01:36;;;;;;;2.20;1.60;;;18.60;99.90;;;;;;6083357;23;20026;-74
2022/09/23 13:06:57;;;;;;;1.20;1.10;;;18.90;99.90;;;;;;6087432;23;20029;-75
2022/09/23 13:09:31;;;;;;;1.10;1.00;;;19.10;99.90;;;;;;6060321;23;20030;-75
2022/09/23 13:11:59;;;;;;;1.40;1.15;;;19.40;99.90;;;;;;6084124;23;20026;-74
2022/09/23 13:14:26;;;;;;;2.05;1.80;;;19.80;99.90;;;;;;6084632;23;20400;-75
2022/09/23 13:16:54;;;;;;;2.22;1.98;;;19.90;99.90;;;;;;6082860;23;20405;-74
2022/09/23 13:19:27;;;;;;;2.05;1.55;;;19.90;99.90;;;;;;6084533;23;20033;-74
2022/09/23 13:22:01;;;;;;;1.63;1.35;;;20.40;99.90;;;;;;6082920;23;20026;-75
2022/09/23 13:24:35;;;;;;;1.65;1.55;;;20.60;99.90;;;;;;6084835;23;20106;-75
2022/09/23 13:27:04;;;;;;;1.92;1.40;;;20.50;99.90;;;;;;6060634;23;20029;-75
2022/09/23 13:29:55;;;;;;;1.70;1.40;;;20.30;99.90;;;;;;6061174;23;20036;-75
2022/09/23 13:32:24;;;;;;;1.55;1.42;;;20.10;99.90;;;;;;6087456;23;20097;-75
2022/09/23 13:35:00;;;;;;;1.50;1.40;;;20.10;99.90;;;;;;6060106;23;20109;-75
2022/09/23 13:37:37;;;;;;;1.20;0.85;;;20.10;99.90;;;;;;6083200;23;20026;-75